sensor_id;sensor_type;location;lat;lon;timestamp;pressure;altitude;pressure_sealevel;temperature;humidity
42411;BME280;28056;51.112;0.984;2024-01-15T00:00:35;99938.59;;;0.36;100.00
42411;BME280;28056;51.112;0.984;2024-01-15T00:03:03;99940.17;;;1.50;100.00
42411;BME280;28056;51.112;0.984;2024-01-15T00:05:30;99938.63;;;1.03;100.00
42411;BME280;28056;51.112;0.984;2024-01-15T00:07:58;99941.01;;;1.31;100.00
42411;BME280;28056;51.112;0.984;2024-01-15T00:10:25;99939.60;;;0.70;100.00
42411;BME280;28056;51.112;0.984;2024-01-15T00:12:53;99942.68;;;0.96;100.00
42411;BME280;28056;51.112;0.984;2024-01-15T00:15:20;99940.57;;;0.96;100.00
42411;BME280;28056;51.112;0.984;2024-01-15T00:17:47;99939.24;;;0.80;100.00
42411;BME280;28056;51.112;0.984;2024-01-15T00:20:14;99940.48;;;1.19;100.00
42411;BME280;28056;51.112;0.984;2024-01-15T00:22:41;99931.53;;;1.84;100.00
42411;BME280;28056;51.112;0.984;2024-01-15T00:25:09;99937.04;;;1.27;100.00
42411;BME280;28056;51.112;0.984;2024-01-15T00:27:36;99936.64;;;0.52;100.00
42411;BME280;28056;51.112;0.984;2024-01-15T00:30:04;99934.76;;;1.21;100.00
42411;BME280;28056;51.112;0.984;2024-01-15T00:32:32;99933.15;;;1.46;100.00
42411;BME280;28056;51.112;0.984;2024-01-15T00:34:59;99931.87;;;0.90;100.00
42411;BME280;28056;51.112;0.984;2024-01-15T00:37:26;99931.30;;;1.18;100.00
42411;BME280;28056;51.112;0.984;2024-01-15T00:39:53;99926.86;;;0.72;100.00
42411;BME280;28056;51.112;0.984;2024-01-15T00:42:21;99925.66;;;0.95;100.00
42411;BME280;28056;51.112;0.984;2024-01-15T00:44:48;99920.58;;;1.15;100.00
42411;BME280;28056;51.112;0.984;2024-01-15T00:47:15;99922.73;;;1.06;100.00
42411;BME280;28056;51.112;0.984;2024-01-15T00:49:42;99927.43;;;1.01;100.00
42411;BME280;28056;51.112;0.984;2024-01-15T00:52:09;99923.22;;;0.30;100.00
42411;BME280;28056;51.112;0.984;2024-01-15T00:54:37;99926.02;;;0.72;100.00
42411;BME280;28056;51.112;0.984;2024-01-15T00:57:04;99921.99;;;-0.27;100.00
42411;BME280;28056;51.112;0.984;2024-01-15T00:59:32;99914.51;;;-0.18;100.00
42411;BME280;28056;51.112;0.984;2024-01-15T01:04:48;99917.51;;;-0.19;100.00
42411;BME280;28056;51.112;0.984;2024-01-15T01:07:16;99918.67;;;-0.78;100.00
42411;BME280;28056;51.112;0.984;2024-01-15T01:09:43;99923.52;;;-0.48;100.00
42411;BME280;28056;51.112;0.984;2024-01-15T01:12:10;99924.96;;;-0.59;100.00
42411;BME280;28056;51.112;0.984;2024-01-15T01:14:37;99924.59;;;-0.17;100.00
42411;BME280;28056;51.112;0.984;2024-01-15T01:17:04;99924.76;;;-0.81;100.00
42411;BME280;28056;51.112;0.984;2024-01-15T01:19:31;99924.54;;;-1.00;100.00
42411;BME280;28056;51.112;0.984;2024-01-15T01:21:59;99926.22;;;-0.86;100.00
42411;BME280;28056;51.112;0.984;2024-01-15T01:24:26;99924.94;;;-0.57;100.00
42411;BME280;28056;51.112;0.984;2024-01-15T01:26:53;99918.21;;;-0.47;100.00
42411;BME280;28056;51.112;0.984;2024-01-15T01:29:20;99916.54;;;-1.10;100.00
42411;BME280;28056;51.112;0.984;2024-01-15T01:31:48;99915.05;;;-0.86;100.00
42411;BME280;28056;51.112;0.984;2024-01-15T01:34:16;99918.04;;;-0.79;100.00
42411;BME280;28056;51.112;0.984;2024-01-15T01:36:44;99910.63;;;-1.14;100.00
42411;BME280;28056;51.112;0.984;2024-01-15T01:39:11;99915.19;;;-1.23;100.00
42411;BME280;28056;51.112;0.984;2024-01-15T01:41:39;99912.79;;;-0.75;100.00
42411;BME280;28056;51.112;0.984;2024-01-15T01:44:07;99909.78;;;-0.66;100.00
42411;BME280;28056;51.112;0.984;2024-01-15T01:46:34;99909.79;;;-0.64;100.00
42411;BME280;28056;51.112;0.984;2024-01-15T01:49:03;99908.63;;;0.43;99.04
42411;BME280;28056;51.112;0.984;2024-01-15T01:51:31;99905.88;;;0.90;92.42
42411;BME280;28056;51.112;0.984;2024-01-15T01:53:59;99904.92;;;-0.02;93.46
42411;BME280;28056;51.112;0.984;2024-01-15T01:56:27;99906.37;;;0.93;93.35
42411;BME280;28056;51.112;0.984;2024-01-15T01:58:55;99905.00;;;1.15;91.30
42411;BME280;28056;51.112;0.984;2024-01-15T02:01:22;99897.45;;;0.55;91.71
42411;BME280;28056;51.112;0.984;2024-01-15T02:03:49;99901.15;;;0.34;92.28
42411;BME280;28056;51.112;0.984;2024-01-15T02:06:16;99904.70;;;0.83;90.28
42411;BME280;28056;51.112;0.984;2024-01-15T02:08:44;99901.81;;;0.32;91.83
42411;BME280;28056;51.112;0.984;2024-01-15T02:11:12;99901.35;;;0.33;91.81
42411;BME280;28056;51.112;0.984;2024-01-15T02:13:39;99903.53;;;0.54;90.72
42411;BME280;28056;51.112;0.984;2024-01-15T02:16:07;99903.99;;;0.83;89.39
42411;BME280;28056;51.112;0.984;2024-01-15T02:18:40;99903.27;;;0.76;89.90
42411;BME280;28056;51.112;0.984;2024-01-15T02:21:08;99905.11;;;-0.26;94.92
42411;BME280;28056;51.112;0.984;2024-01-15T02:23:36;99905.17;;;-0.34;94.65
42411;BME280;28056;51.112;0.984;2024-01-15T02:26:04;99903.70;;;-0.79;97.25
42411;BME280;28056;51.112;0.984;2024-01-15T02:28:33;99902.48;;;-0.47;97.90
42411;BME280;28056;51.112;0.984;2024-01-15T02:31:00;99903.75;;;-0.53;98.80
42411;BME280;28056;51.112;0.984;2024-01-15T02:33:27;99904.04;;;0.07;97.75
42411;BME280;28056;51.112;0.984;2024-01-15T02:35:54;99908.87;;;-0.07;98.98
42411;BME280;28056;51.112;0.984;2024-01-15T02:38:22;99903.53;;;-0.91;100.00
42411;BME280;28056;51.112;0.984;2024-01-15T02:40:50;99906.91;;;-1.36;100.00
42411;BME280;28056;51.112;0.984;2024-01-15T02:43:17;99902.11;;;-1.04;100.00
42411;BME280;28056;51.112;0.984;2024-01-15T02:45:44;99903.88;;;-1.48;100.00
42411;BME280;28056;51.112;0.984;2024-01-15T02:48:11;99901.33;;;-0.67;100.00
42411;BME280;28056;51.112;0.984;2024-01-15T02:50:39;99903.72;;;-1.63;100.00
42411;BME280;28056;51.112;0.984;2024-01-15T02:53:07;99904.09;;;-1.57;100.00
42411;BME280;28056;51.112;0.984;2024-01-15T02:55:34;99900.28;;;-1.69;100.00
42411;BME280;28056;51.112;0.984;2024-01-15T02:58:01;99893.53;;;-2.11;100.00
42411;BME280;28056;51.112;0.984;2024-01-15T03:00:29;99892.62;;;-1.97;100.00
42411;BME280;28056;51.112;0.984;2024-01-15T03:02:56;99893.10;;;-1.07;100.00
42411;BME280;28056;51.112;0.984;2024-01-15T03:05:24;99888.98;;;-0.95;100.00
42411;BME280;28056;51.112;0.984;2024-01-15T03:07:51;99890.59;;;-1.17;100.00
42411;BME280;28056;51.112;0.984;2024-01-15T03:10:18;99889.49;;;-1.40;100.00
42411;BME280;28056;51.112;0.984;2024-01-15T03:12:46;99884.49;;;-1.15;100.00
42411;BME280;28056;51.112;0.984;2024-01-15T03:15:13;99883.59;;;-1.16;100.00
42411;BME280;28056;51.112;0.984;2024-01-15T03:17:41;99886.89;;;-0.56;99.01
42411;BME280;28056;51.112;0.984;2024-01-15T03:20:09;99887.49;;;-0.53;96.62
42411;BME280;28056;51.112;0.984;2024-01-15T03:22:37;99887.35;;;-0.56;95.72
42411;BME280;28056;51.112;0.984;2024-01-15T03:25:05;99888.77;;;-0.51;95.14
42411;BME280;28056;51.112;0.984;2024-01-15T03:27:33;99888.10;;;-0.63;92.90
42411;BME280;28056;51.112;0.984;2024-01-15T03:30:00;99895.14;;;-0.33;92.97
42411;BME280;28056;51.112;0.984;2024-01-15T03:32:27;99891.78;;;0.27;90.66
42411;BME280;28056;51.112;0.984;2024-01-15T03:34:54;99889.20;;;0.08;88.48
42411;BME280;28056;51.112;0.984;2024-01-15T03:37:22;99884.58;;;-0.05;88.94
42411;BME280;28056;51.112;0.984;2024-01-15T03:39:51;99884.63;;;0.30;86.69
42411;BME280;28056;51.112;0.984;2024-01-15T03:42:18;99889.45;;;0.52;84.75
42411;BME280;28056;51.112;0.984;2024-01-15T03:44:45;99886.75;;;0.99;84.55
42411;BME280;28056;51.112;0.984;2024-01-15T03:47:12;99891.74;;;0.54;84.58
42411;BME280;28056;51.112;0.984;2024-01-15T03:49:40;99898.06;;;0.36;86.95
42411;BME280;28056;51.112;0.984;2024-01-15T03:52:08;99896.51;;;0.01;87.29
42411;BME280;28056;51.112;0.984;2024-01-15T03:54:35;99899.84;;;-0.46;90.29
42411;BME280;28056;51.112;0.984;2024-01-15T03:57:03;99895.63;;;-1.15;95.26
42411;BME280;28056;51.112;0.984;2024-01-15T03:59:31;99892.46;;;-1.43;97.65
42411;BME280;28056;51.112;0.984;2024-01-15T04:01:58;99894.11;;;-1.78;100.00
42411;BME280;28056;51.112;0.984;2024-01-15T04:04:26;99889.79;;;-1.49;100.00
42411;BME280;28056;51.112;0.984;2024-01-15T04:06:54;99885.31;;;-1.84;100.00
42411;BME280;28056;51.112;0.984;2024-01-15T04:09:21;99882.99;;;-2.10;100.00
42411;BME280;28056;51.112;0.984;2024-01-15T04:11:49;99878.98;;;-2.08;100.00
42411;BME280;28056;51.112;0.984;2024-01-15T04:14:16;99876.21;;;-2.33;100.00
42411;BME280;28056;51.112;0.984;2024-01-15T04:16:43;99873.74;;;-2.55;100.00
42411;BME280;28056;51.112;0.984;2024-01-15T04:19:10;99873.59;;;-2.09;100.00
42411;BME280;28056;51.112;0.984;2024-01-15T04:21:38;99874.41;;;-2.49;100.00
42411;BME280;28056;51.112;0.984;2024-01-15T04:24:05;99868.04;;;-2.61;100.00
42411;BME280;28056;51.112;0.984;2024-01-15T04:26:33;99870.41;;;-2.93;100.00
42411;BME280;28056;51.112;0.984;2024-01-15T04:29:01;99869.04;;;-3.35;100.00
42411;BME280;28056;51.112;0.984;2024-01-15T04:31:29;99868.67;;;-2.71;100.00
42411;BME280;28056;51.112;0.984;2024-01-15T04:33:56;99867.48;;;-2.90;100.00
42411;BME280;28056;51.112;0.984;2024-01-15T04:36:23;99864.92;;;-2.78;100.00
42411;BME280;28056;51.112;0.984;2024-01-15T04:38:51;99864.45;;;-2.81;100.00
42411;BME280;28056;51.112;0.984;2024-01-15T04:41:18;99864.09;;;-3.01;100.00
42411;BME280;28056;51.112;0.984;2024-01-15T04:43:45;99868.38;;;-2.43;100.00
42411;BME280;28056;51.112;0.984;2024-01-15T04:46:13;99872.23;;;-3.04;100.00
42411;BME280;28056;51.112;0.984;2024-01-15T04:48:40;99868.93;;;-3.00;100.00
42411;BME280;28056;51.112;0.984;2024-01-15T04:51:09;99867.88;;;-2.70;100.00
42411;BME280;28056;51.112;0.984;2024-01-15T04:53:36;99864.93;;;-2.43;100.00
42411;BME280;28056;51.112;0.984;2024-01-15T04:56:04;99862.02;;;-2.47;100.00
42411;BME280;28056;51.112;0.984;2024-01-15T04:58:31;99857.13;;;-2.64;100.00
42411;BME280;28056;51.112;0.984;2024-01-15T05:00:59;99856.32;;;-2.64;100.00
42411;BME280;28056;51.112;0.984;2024-01-15T05:03:26;99854.95;;;-2.56;100.00
42411;BME280;28056;51.112;0.984;2024-01-15T05:05:54;99855.82;;;-2.42;100.00
42411;BME280;28056;51.112;0.984;2024-01-15T05:08:21;99859.43;;;-2.94;100.00
42411;BME280;28056;51.112;0.984;2024-01-15T05:10:48;99860.96;;;-2.36;100.00
42411;BME280;28056;51.112;0.984;2024-01-15T05:13:16;99855.95;;;-2.15;100.00
42411;BME280;28056;51.112;0.984;2024-01-15T05:15:43;99855.83;;;-2.16;100.00
42411;BME280;28056;51.112;0.984;2024-01-15T05:18:10;99860.11;;;-2.35;100.00
42411;BME280;28056;51.112;0.984;2024-01-15T05:20:38;99858.36;;;-2.06;100.00
42411;BME280;28056;51.112;0.984;2024-01-15T05:23:05;99854.97;;;-2.51;100.00
42411;BME280;28056;51.112;0.984;2024-01-15T05:25:32;99853.64;;;-2.71;100.00
42411;BME280;28056;51.112;0.984;2024-01-15T05:28:00;99854.11;;;-2.73;100.00
42411;BME280;28056;51.112;0.984;2024-01-15T05:30:27;99853.58;;;-2.82;100.00
42411;BME280;28056;51.112;0.984;2024-01-15T05:32:54;99851.22;;;-3.46;100.00
42411;BME280;28056;51.112;0.984;2024-01-15T05:35:22;99847.63;;;-3.05;100.00
42411;BME280;28056;51.112;0.984;2024-01-15T05:37:49;99844.61;;;-2.92;100.00
42411;BME280;28056;51.112;0.984;2024-01-15T05:40:16;99842.92;;;-3.04;100.00
42411;BME280;28056;51.112;0.984;2024-01-15T05:42:44;99843.64;;;-2.97;100.00
42411;BME280;28056;51.112;0.984;2024-01-15T05:45:11;99849.66;;;-3.60;100.00
42411;BME280;28056;51.112;0.984;2024-01-15T05:47:38;99858.85;;;-4.21;100.00
42411;BME280;28056;51.112;0.984;2024-01-15T05:50:06;99857.34;;;-3.95;100.00
42411;BME280;28056;51.112;0.984;2024-01-15T05:52:34;99852.67;;;-3.82;100.00
42411;BME280;28056;51.112;0.984;2024-01-15T05:55:01;99851.36;;;-4.01;100.00
42411;BME280;28056;51.112;0.984;2024-01-15T05:57:29;99847.47;;;-4.39;100.00
42411;BME280;28056;51.112;0.984;2024-01-15T05:59:56;99844.80;;;-4.15;100.00
42411;BME280;28056;51.112;0.984;2024-01-15T06:02:23;99858.21;;;-4.26;100.00
42411;BME280;28056;51.112;0.984;2024-01-15T06:04:51;99860.66;;;-4.21;100.00
42411;BME280;28056;51.112;0.984;2024-01-15T06:07:18;99857.28;;;-4.60;100.00
42411;BME280;28056;51.112;0.984;2024-01-15T06:09:45;99858.53;;;-4.78;100.00
42411;BME280;28056;51.112;0.984;2024-01-15T06:12:13;99861.63;;;-4.65;100.00
42411;BME280;28056;51.112;0.984;2024-01-15T06:14:40;99860.95;;;-4.81;100.00
42411;BME280;28056;51.112;0.984;2024-01-15T06:17:07;99856.29;;;-4.65;100.00
42411;BME280;28056;51.112;0.984;2024-01-15T06:19:35;99861.42;;;-4.36;100.00
42411;BME280;28056;51.112;0.984;2024-01-15T06:22:02;99861.79;;;-3.80;100.00
42411;BME280;28056;51.112;0.984;2024-01-15T06:24:29;99862.92;;;-3.52;100.00
42411;BME280;28056;51.112;0.984;2024-01-15T06:26:57;99860.01;;;-4.25;100.00
42411;BME280;28056;51.112;0.984;2024-01-15T06:29:26;99862.22;;;-3.99;100.00
42411;BME280;28056;51.112;0.984;2024-01-15T06:31:53;99858.21;;;-4.37;100.00
42411;BME280;28056;51.112;0.984;2024-01-15T06:34:20;99861.60;;;-3.95;100.00
42411;BME280;28056;51.112;0.984;2024-01-15T06:36:48;99861.40;;;-4.01;100.00
42411;BME280;28056;51.112;0.984;2024-01-15T06:39:15;99859.16;;;-3.76;100.00
42411;BME280;28056;51.112;0.984;2024-01-15T06:41:43;99860.22;;;-3.88;100.00
42411;BME280;28056;51.112;0.984;2024-01-15T06:44:10;99864.90;;;-3.73;100.00
42411;BME280;28056;51.112;0.984;2024-01-15T06:46:42;99871.47;;;-3.87;100.00
42411;BME280;28056;51.112;0.984;2024-01-15T06:49:09;99875.10;;;-4.18;100.00
42411;BME280;28056;51.112;0.984;2024-01-15T06:51:37;99872.69;;;-4.30;100.00
42411;BME280;28056;51.112;0.984;2024-01-15T06:54:04;99877.12;;;-4.25;100.00
42411;BME280;28056;51.112;0.984;2024-01-15T06:56:31;99883.76;;;-4.39;100.00
42411;BME280;28056;51.112;0.984;2024-01-15T06:58:59;99889.35;;;-4.67;100.00
42411;BME280;28056;51.112;0.984;2024-01-15T07:01:27;99892.78;;;-4.56;100.00
42411;BME280;28056;51.112;0.984;2024-01-15T07:03:54;99897.61;;;-4.83;100.00
42411;BME280;28056;51.112;0.984;2024-01-15T07:06:22;99896.17;;;-4.24;100.00
42411;BME280;28056;51.112;0.984;2024-01-15T07:08:49;99904.41;;;-4.31;100.00
42411;BME280;28056;51.112;0.984;2024-01-15T07:11:16;99903.05;;;-4.02;100.00
42411;BME280;28056;51.112;0.984;2024-01-15T07:13:44;99909.79;;;-3.98;100.00
42411;BME280;28056;51.112;0.984;2024-01-15T07:16:11;99909.27;;;-4.03;100.00
42411;BME280;28056;51.112;0.984;2024-01-15T07:18:38;99905.08;;;-4.11;100.00
42411;BME280;28056;51.112;0.984;2024-01-15T07:21:06;99906.57;;;-4.07;100.00
42411;BME280;28056;51.112;0.984;2024-01-15T07:23:33;99906.37;;;-3.51;100.00
42411;BME280;28056;51.112;0.984;2024-01-15T07:26:00;99908.18;;;-3.82;100.00
42411;BME280;28056;51.112;0.984;2024-01-15T07:28:29;99907.21;;;-4.06;100.00
42411;BME280;28056;51.112;0.984;2024-01-15T07:30:57;99908.05;;;-4.41;100.00
42411;BME280;28056;51.112;0.984;2024-01-15T07:33:24;99913.91;;;-4.40;100.00
42411;BME280;28056;51.112;0.984;2024-01-15T07:35:52;99916.16;;;-4.44;100.00
42411;BME280;28056;51.112;0.984;2024-01-15T07:38:19;99912.09;;;-4.38;100.00
42411;BME280;28056;51.112;0.984;2024-01-15T07:40:46;99916.30;;;-4.42;100.00
42411;BME280;28056;51.112;0.984;2024-01-15T07:43:14;99919.81;;;-4.65;100.00
42411;BME280;28056;51.112;0.984;2024-01-15T07:45:41;99920.32;;;-4.38;100.00
42411;BME280;28056;51.112;0.984;2024-01-15T07:48:08;99917.01;;;-4.75;100.00
42411;BME280;28056;51.112;0.984;2024-01-15T07:50:36;99914.47;;;-4.93;100.00
42411;BME280;28056;51.112;0.984;2024-01-15T07:53:03;99915.48;;;-4.98;100.00
42411;BME280;28056;51.112;0.984;2024-01-15T07:55:30;99915.23;;;-5.00;100.00
42411;BME280;28056;51.112;0.984;2024-01-15T07:58:03;99911.53;;;-5.23;100.00
42411;BME280;28056;51.112;0.984;2024-01-15T08:00:31;99918.45;;;-4.97;100.00
42411;BME280;28056;51.112;0.984;2024-01-15T08:02:58;99916.68;;;-5.01;100.00
42411;BME280;28056;51.112;0.984;2024-01-15T08:05:25;99924.12;;;-4.88;100.00
42411;BME280;28056;51.112;0.984;2024-01-15T08:07:53;99923.08;;;-4.95;100.00
42411;BME280;28056;51.112;0.984;2024-01-15T08:10:20;99928.77;;;-4.72;100.00
42411;BME280;28056;51.112;0.984;2024-01-15T08:12:47;99931.24;;;-5.02;100.00
42411;BME280;28056;51.112;0.984;2024-01-15T08:15:15;99934.27;;;-4.92;100.00
42411;BME280;28056;51.112;0.984;2024-01-15T08:17:42;99936.97;;;-5.12;100.00
42411;BME280;28056;51.112;0.984;2024-01-15T08:20:10;99935.92;;;-4.88;100.00
42411;BME280;28056;51.112;0.984;2024-01-15T08:22:38;99937.18;;;-4.89;100.00
42411;BME280;28056;51.112;0.984;2024-01-15T08:25:06;99936.47;;;-4.85;100.00
42411;BME280;28056;51.112;0.984;2024-01-15T08:27:34;99936.63;;;-4.92;100.00
42411;BME280;28056;51.112;0.984;2024-01-15T08:30:01;99940.38;;;-4.89;100.00
42411;BME280;28056;51.112;0.984;2024-01-15T08:32:29;99948.33;;;-4.84;100.00
42411;BME280;28056;51.112;0.984;2024-01-15T08:34:56;99948.02;;;-4.76;100.00
42411;BME280;28056;51.112;0.984;2024-01-15T08:37:24;99953.42;;;-4.58;100.00
42411;BME280;28056;51.112;0.984;2024-01-15T08:39:51;99950.88;;;-4.35;100.00
42411;BME280;28056;51.112;0.984;2024-01-15T08:42:18;99955.38;;;-4.51;100.00
42411;BME280;28056;51.112;0.984;2024-01-15T08:44:46;99954.00;;;-4.86;100.00
42411;BME280;28056;51.112;0.984;2024-01-15T08:47:13;99956.86;;;-4.78;100.00
42411;BME280;28056;51.112;0.984;2024-01-15T08:49:40;99955.59;;;-4.65;100.00
42411;BME280;28056;51.112;0.984;2024-01-15T08:52:10;99957.50;;;-4.67;100.00
42411;BME280;28056;51.112;0.984;2024-01-15T08:54:37;99955.92;;;-4.28;100.00
42411;BME280;28056;51.112;0.984;2024-01-15T08:57:04;99960.91;;;-4.60;100.00
42411;BME280;28056;51.112;0.984;2024-01-15T08:59:32;99966.37;;;-4.07;100.00
42411;BME280;28056;51.112;0.984;2024-01-15T09:01:59;99964.49;;;-4.23;100.00
42411;BME280;28056;51.112;0.984;2024-01-15T09:04:26;99966.99;;;-4.33;100.00
42411;BME280;28056;51.112;0.984;2024-01-15T09:06:54;99965.38;;;-4.33;100.00
42411;BME280;28056;51.112;0.984;2024-01-15T09:09:21;99965.00;;;-4.13;100.00
42411;BME280;28056;51.112;0.984;2024-01-15T09:11:48;99958.74;;;-4.42;100.00
42411;BME280;28056;51.112;0.984;2024-01-15T09:14:16;99961.88;;;-4.30;100.00
42411;BME280;28056;51.112;0.984;2024-01-15T09:16:43;99963.69;;;-4.40;100.00
42411;BME280;28056;51.112;0.984;2024-01-15T09:19:11;99968.60;;;-4.04;100.00
42411;BME280;28056;51.112;0.984;2024-01-15T09:21:38;99962.64;;;-4.39;100.00
42411;BME280;28056;51.112;0.984;2024-01-15T09:24:06;99962.26;;;-4.17;100.00
42411;BME280;28056;51.112;0.984;2024-01-15T09:26:33;99957.35;;;-4.20;100.00
42411;BME280;28056;51.112;0.984;2024-01-15T09:29:00;99951.48;;;-4.16;100.00
42411;BME280;28056;51.112;0.984;2024-01-15T09:31:28;99949.52;;;-3.90;100.00
42411;BME280;28056;51.112;0.984;2024-01-15T09:33:56;99950.76;;;-3.90;100.00
42411;BME280;28056;51.112;0.984;2024-01-15T09:36:23;99952.69;;;-3.61;100.00
42411;BME280;28056;51.112;0.984;2024-01-15T09:38:50;99954.75;;;-3.80;100.00
42411;BME280;28056;51.112;0.984;2024-01-15T09:41:18;99955.77;;;-3.65;100.00
42411;BME280;28056;51.112;0.984;2024-01-15T09:43:46;99963.86;;;-3.47;100.00
42411;BME280;28056;51.112;0.984;2024-01-15T09:46:19;99971.87;;;-3.47;100.00
42411;BME280;28056;51.112;0.984;2024-01-15T09:48:47;99979.08;;;-3.61;100.00
42411;BME280;28056;51.112;0.984;2024-01-15T09:51:14;99985.21;;;-3.56;100.00
42411;BME280;28056;51.112;0.984;2024-01-15T09:53:43;99996.89;;;-3.44;100.00
42411;BME280;28056;51.112;0.984;2024-01-15T09:56:11;100000.91;;;-3.54;100.00
42411;BME280;28056;51.112;0.984;2024-01-15T09:58:40;100004.92;;;-3.15;100.00
42411;BME280;28056;51.112;0.984;2024-01-15T10:01:08;100007.29;;;-3.22;100.00
42411;BME280;28056;51.112;0.984;2024-01-15T10:03:36;100007.01;;;-3.34;100.00
42411;BME280;28056;51.112;0.984;2024-01-15T10:06:05;100006.75;;;-3.22;100.00
42411;BME280;28056;51.112;0.984;2024-01-15T10:08:34;100008.19;;;-3.20;100.00
42411;BME280;28056;51.112;0.984;2024-01-15T10:11:03;100008.24;;;-3.16;100.00
42411;BME280;28056;51.112;0.984;2024-01-15T10:13:31;100013.50;;;-2.71;100.00
42411;BME280;28056;51.112;0.984;2024-01-15T10:15:58;100013.67;;;-3.05;100.00
42411;BME280;28056;51.112;0.984;2024-01-15T10:18:27;100016.60;;;-2.93;100.00
42411;BME280;28056;51.112;0.984;2024-01-15T10:20:55;100016.86;;;-2.76;98.64
42411;BME280;28056;51.112;0.984;2024-01-15T10:23:23;100021.66;;;-3.14;98.98
42411;BME280;28056;51.112;0.984;2024-01-15T10:25:51;100024.77;;;-2.98;98.65
42411;BME280;28056;51.112;0.984;2024-01-15T10:28:19;100026.86;;;-2.93;97.88
42411;BME280;28056;51.112;0.984;2024-01-15T10:30:46;100035.44;;;-2.49;100.00
42411;BME280;28056;51.112;0.984;2024-01-15T10:33:14;100042.17;;;-2.26;97.31
42411;BME280;28056;51.112;0.984;2024-01-15T10:35:41;100044.25;;;-2.64;97.03
42411;BME280;28056;51.112;0.984;2024-01-15T10:38:09;100037.48;;;-2.80;92.79
42411;BME280;28056;51.112;0.984;2024-01-15T10:40:36;100044.73;;;-2.64;97.25
42411;BME280;28056;51.112;0.984;2024-01-15T10:43:04;100038.68;;;-2.77;92.78
42411;BME280;28056;51.112;0.984;2024-01-15T10:45:31;100047.92;;;-2.81;93.53
42411;BME280;28056;51.112;0.984;2024-01-15T10:47:59;100046.70;;;-2.68;94.33
42411;BME280;28056;51.112;0.984;2024-01-15T10:50:26;100044.76;;;-2.57;88.10
42411;BME280;28056;51.112;0.984;2024-01-15T10:52:54;100036.70;;;-3.01;86.85
42411;BME280;28056;51.112;0.984;2024-01-15T10:55:23;100043.55;;;-2.68;88.27
42411;BME280;28056;51.112;0.984;2024-01-15T10:57:52;100048.27;;;-2.47;88.76
42411;BME280;28056;51.112;0.984;2024-01-15T11:00:21;100048.77;;;-2.10;90.55
42411;BME280;28056;51.112;0.984;2024-01-15T11:02:48;100040.78;;;-2.62;84.47
42411;BME280;28056;51.112;0.984;2024-01-15T11:05:16;100047.55;;;-2.86;86.97
42411;BME280;28056;51.112;0.984;2024-01-15T11:07:44;100049.94;;;-2.76;88.05
42411;BME280;28056;51.112;0.984;2024-01-15T11:10:38;100053.06;;;-2.34;90.62
42411;BME280;28056;51.112;0.984;2024-01-15T11:13:09;100043.32;;;-2.77;88.90
42411;BME280;28056;51.112;0.984;2024-01-15T11:15:55;100042.92;;;-2.30;88.21
42411;BME280;28056;51.112;0.984;2024-01-15T11:18:22;100041.64;;;-2.45;87.93
42411;BME280;28056;51.112;0.984;2024-01-15T11:21:19;100044.42;;;-2.36;86.91
42411;BME280;28056;51.112;0.984;2024-01-15T11:23:48;100036.41;;;-2.22;85.59
42411;BME280;28056;51.112;0.984;2024-01-15T11:26:34;100037.48;;;-2.42;83.72
42411;BME280;28056;51.112;0.984;2024-01-15T11:29:03;100034.68;;;-2.27;83.75
42411;BME280;28056;51.112;0.984;2024-01-15T11:31:58;100031.50;;;-1.89;85.20
42411;BME280;28056;51.112;0.984;2024-01-15T11:34:51;100034.31;;;-1.60;84.95
42411;BME280;28056;51.112;0.984;2024-01-15T11:37:20;100023.33;;;-1.27;83.26
42411;BME280;28056;51.112;0.984;2024-01-15T11:39:47;100020.66;;;-1.65;77.65
42411;BME280;28056;51.112;0.984;2024-01-15T11:42:15;100026.09;;;-1.44;77.84
42411;BME280;28056;51.112;0.984;2024-01-15T11:44:43;100025.87;;;-1.21;83.68
42411;BME280;28056;51.112;0.984;2024-01-15T11:47:11;100025.60;;;-1.02;77.19
42411;BME280;28056;51.112;0.984;2024-01-15T11:50:11;100027.78;;;-0.81;74.36
42411;BME280;28056;51.112;0.984;2024-01-15T11:52:39;100024.37;;;-0.22;73.84
42411;BME280;28056;51.112;0.984;2024-01-15T11:55:14;100024.24;;;-0.63;73.59
42411;BME280;28056;51.112;0.984;2024-01-15T11:57:46;100024.07;;;-0.63;74.08
42411;BME280;28056;51.112;0.984;2024-01-15T12:00:14;100021.60;;;-0.65;73.02
42411;BME280;28056;51.112;0.984;2024-01-15T12:02:43;100026.05;;;-0.42;70.53
42411;BME280;28056;51.112;0.984;2024-01-15T12:05:12;100033.99;;;-0.39;71.47
42411;BME280;28056;51.112;0.984;2024-01-15T12:07:40;100040.58;;;0.59;71.72
42411;BME280;28056;51.112;0.984;2024-01-15T12:10:09;100041.25;;;0.54;65.89
42411;BME280;28056;51.112;0.984;2024-01-15T12:12:49;100041.02;;;0.32;67.54
42411;BME280;28056;51.112;0.984;2024-01-15T12:15:20;100037.58;;;-0.38;67.07
42411;BME280;28056;51.112;0.984;2024-01-15T12:17:47;100040.96;;;-0.38;70.09
42411;BME280;28056;51.112;0.984;2024-01-15T12:20:15;100041.13;;;-0.24;72.53
42411;BME280;28056;51.112;0.984;2024-01-15T12:22:42;100045.13;;;-0.20;71.70
42411;BME280;28056;51.112;0.984;2024-01-15T12:25:09;100045.49;;;-0.14;71.21
42411;BME280;28056;51.112;0.984;2024-01-15T12:27:37;100039.74;;;-0.24;67.21
42411;BME280;28056;51.112;0.984;2024-01-15T12:30:06;100049.25;;;-0.78;69.18
42411;BME280;28056;51.112;0.984;2024-01-15T12:32:35;100045.33;;;-0.32;71.69
42411;BME280;28056;51.112;0.984;2024-01-15T12:35:03;100042.25;;;0.05;68.83
42411;BME280;28056;51.112;0.984;2024-01-15T12:37:30;100040.86;;;-0.34;69.00
42411;BME280;28056;51.112;0.984;2024-01-15T12:39:59;100045.37;;;0.42;69.81
42411;BME280;28056;51.112;0.984;2024-01-15T12:42:28;100047.93;;;0.77;63.19
42411;BME280;28056;51.112;0.984;2024-01-15T12:44:57;100052.98;;;0.69;64.11
42411;BME280;28056;51.112;0.984;2024-01-15T12:47:25;100056.16;;;0.72;66.70
42411;BME280;28056;51.112;0.984;2024-01-15T12:49:52;100051.98;;;0.62;62.63
42411;BME280;28056;51.112;0.984;2024-01-15T12:52:20;100052.72;;;-0.51;62.48
42411;BME280;28056;51.112;0.984;2024-01-15T12:54:48;100056.80;;;0.01;68.81
42411;BME280;28056;51.112;0.984;2024-01-15T12:57:15;100050.55;;;0.80;61.86
42411;BME280;28056;51.112;0.984;2024-01-15T12:59:43;100054.26;;;0.07;64.83